首页
METAR-TAF:

METAR-TAF

机场 :

Minocqua / Woodruff, 威斯康辛州, 美国

纬度: 45-56N, 经度: 089-44W, 海拔: 496米

当前天气观测

该预报发布于36分钟前的13:15 UTC
风速9节,风向北转西北,有时为15节阵风
温度 0°C
湿度 69%
气压 1004 hPa
能見度: 16.1公里
多云层高于6000英尺
多云层高于7000英尺
多云层高于8500英尺

METAR: KARV 091315Z AUTO 33009G15KT 10SM BKN060 BKN070 BKN085 00/M05 A2966 RMK AO2 T00011047

时间: 08:51 (13:51 UTC)


TAF: 丢失

超过4000个机场的气象观测和天气预报(METAR&TAF报告)。

可查询的气象台以黄色和红色小点在地图上表示。

将鼠标移到小点上方,可查看气象台名称。

然后点击查看天气观测和预报。

如需切换地图:点击带黑十字的绿色按钮放大地图;点击带横线的绿色按钮缩小地图;或者点击绿色箭头查看邻近地区的地图。


METAR-TAF: